sensor_id;sensor_type;location;lat;lon;timestamp;temperature;humidity
34135;DHT22;20410;55.578;12.968;2023-03-03T00:00:17;0.90;1.00
34135;DHT22;20410;55.578;12.968;2023-03-03T00:02:43;0.90;1.00
34135;DHT22;20410;55.578;12.968;2023-03-03T00:05:09;0.90;1.00
34135;DHT22;20410;55.578;12.968;2023-03-03T00:07:34;0.90;1.00
34135;DHT22;20410;55.578;12.968;2023-03-03T00:10:00;0.90;1.00
34135;DHT22;20410;55.578;12.968;2023-03-03T00:12:29;0.90;1.00
34135;DHT22;20410;55.578;12.968;2023-03-03T00:14:55;0.90;1.00
34135;DHT22;20410;55.578;12.968;2023-03-03T00:17:29;0.90;1.00
34135;DHT22;20410;55.578;12.968;2023-03-03T00:19:56;0.90;1.00
34135;DHT22;20410;55.578;12.968;2023-03-03T00:22:30;0.90;1.00
34135;DHT22;20410;55.578;12.968;2023-03-03T00:27:45;1.00;1.00
34135;DHT22;20410;55.578;12.968;2023-03-03T00:30:23;1.10;1.00
34135;DHT22;20410;55.578;12.968;2023-03-03T00:32:55;1.10;1.00
34135;DHT22;20410;55.578;12.968;2023-03-03T00:35:29;1.00;1.00
34135;DHT22;20410;55.578;12.968;2023-03-03T00:37:57;1.10;1.00
34135;DHT22;20410;55.578;12.968;2023-03-03T00:40:35;1.10;1.00
34135;DHT22;20410;55.578;12.968;2023-03-03T00:43:01;1.10;1.00
34135;DHT22;20410;55.578;12.968;2023-03-03T00:45:43;1.20;1.00
34135;DHT22;20410;55.578;12.968;2023-03-03T00:48:30;1.10;1.00
34135;DHT22;20410;55.578;12.968;2023-03-03T00:50:59;1.10;1.00
34135;DHT22;20410;55.578;12.968;2023-03-03T00:53:29;1.10;1.00
34135;DHT22;20410;55.578;12.968;2023-03-03T00:55:56;1.00;1.00
34135;DHT22;20410;55.578;12.968;2023-03-03T00:58:23;0.90;1.00
34135;DHT22;20410;55.578;12.968;2023-03-03T01:00:52;0.90;1.00
34135;DHT22;20410;55.578;12.968;2023-03-03T01:03:23;1.00;1.00
34135;DHT22;20410;55.578;12.968;2023-03-03T01:05:50;1.00;1.00
34135;DHT22;20410;55.578;12.968;2023-03-03T01:08:16;0.90;1.00
34135;DHT22;20410;55.578;12.968;2023-03-03T01:10:51;1.00;1.00
34135;DHT22;20410;55.578;12.968;2023-03-03T01:13:22;0.90;1.00
34135;DHT22;20410;55.578;12.968;2023-03-03T01:15:49;1.00;1.00
34135;DHT22;20410;55.578;12.968;2023-03-03T01:18:15;1.00;1.00
34135;DHT22;20410;55.578;12.968;2023-03-03T01:20:40;1.00;1.00
34135;DHT22;20410;55.578;12.968;2023-03-03T01:23:07;1.00;1.00
34135;DHT22;20410;55.578;12.968;2023-03-03T01:25:33;1.00;1.00
34135;DHT22;20410;55.578;12.968;2023-03-03T01:27:58;1.00;1.00
34135;DHT22;20410;55.578;12.968;2023-03-03T01:30:24;1.00;1.00
34135;DHT22;20410;55.578;12.968;2023-03-03T01:32:50;1.00;1.00
34135;DHT22;20410;55.578;12.968;2023-03-03T01:35:16;1.10;1.00
34135;DHT22;20410;55.578;12.968;2023-03-03T01:37:42;1.20;1.00
34135;DHT22;20410;55.578;12.968;2023-03-03T01:40:14;1.30;1.00
34135;DHT22;20410;55.578;12.968;2023-03-03T01:42:40;1.40;1.00
34135;DHT22;20410;55.578;12.968;2023-03-03T01:45:16;1.40;1.00
34135;DHT22;20410;55.578;12.968;2023-03-03T01:47:58;1.40;1.00
34135;DHT22;20410;55.578;12.968;2023-03-03T01:50:40;1.40;1.00
34135;DHT22;20410;55.578;12.968;2023-03-03T01:53:12;1.40;1.00
34135;DHT22;20410;55.578;12.968;2023-03-03T01:55:40;1.50;1.00
34135;DHT22;20410;55.578;12.968;2023-03-03T01:58:32;1.50;1.00
34135;DHT22;20410;55.578;12.968;2023-03-03T02:01:05;1.50;1.00
34135;DHT22;20410;55.578;12.968;2023-03-03T02:03:33;1.60;1.00
34135;DHT22;20410;55.578;12.968;2023-03-03T02:06:05;1.70;1.00
34135;DHT22;20410;55.578;12.968;2023-03-03T02:08:51;1.80;1.00
34135;DHT22;20410;55.578;12.968;2023-03-03T02:11:18;1.90;1.00
34135;DHT22;20410;55.578;12.968;2023-03-03T02:13:45;1.90;1.00
34135;DHT22;20410;55.578;12.968;2023-03-03T02:16:11;1.90;1.00
34135;DHT22;20410;55.578;12.968;2023-03-03T02:18:36;2.00;1.00
34135;DHT22;20410;55.578;12.968;2023-03-03T02:21:06;2.10;2.10
34135;DHT22;20410;55.578;12.968;2023-03-03T02:23:47;2.20;3.50
34135;DHT22;20410;55.578;12.968;2023-03-03T02:28:48;2.40;7.40
34135;DHT22;20410;55.578;12.968;2023-03-03T02:31:16;2.40;1.00
34135;DHT22;20410;55.578;12.968;2023-03-03T02:33:44;2.50;1.00
34135;DHT22;20410;55.578;12.968;2023-03-03T02:36:12;2.50;1.00
34135;DHT22;20410;55.578;12.968;2023-03-03T02:38:47;2.50;1.00
34135;DHT22;20410;55.578;12.968;2023-03-03T02:41:26;2.50;1.00
34135;DHT22;20410;55.578;12.968;2023-03-03T02:44:11;2.50;1.00
34135;DHT22;20410;55.578;12.968;2023-03-03T02:46:40;2.50;1.00
34135;DHT22;20410;55.578;12.968;2023-03-03T02:49:07;2.50;1.00
34135;DHT22;20410;55.578;12.968;2023-03-03T02:51:33;2.50;1.00
34135;DHT22;20410;55.578;12.968;2023-03-03T02:54:00;2.50;1.00
34135;DHT22;20410;55.578;12.968;2023-03-03T02:56:26;2.40;1.00
34135;DHT22;20410;55.578;12.968;2023-03-03T02:58:52;2.30;1.00
34135;DHT22;20410;55.578;12.968;2023-03-03T03:01:17;2.30;1.00
34135;DHT22;20410;55.578;12.968;2023-03-03T03:03:43;2.20;1.00
34135;DHT22;20410;55.578;12.968;2023-03-03T03:06:09;2.20;1.00
34135;DHT22;20410;55.578;12.968;2023-03-03T03:08:35;2.20;1.00
34135;DHT22;20410;55.578;12.968;2023-03-03T03:11:00;2.20;1.00
34135;DHT22;20410;55.578;12.968;2023-03-03T03:13:26;2.00;1.00
34135;DHT22;20410;55.578;12.968;2023-03-03T03:15:52;2.00;1.00
34135;DHT22;20410;55.578;12.968;2023-03-03T03:18:18;1.90;1.00
34135;DHT22;20410;55.578;12.968;2023-03-03T03:20:44;2.00;1.00
34135;DHT22;20410;55.578;12.968;2023-03-03T03:23:11;1.90;1.00
34135;DHT22;20410;55.578;12.968;2023-03-03T03:25:36;1.80;1.00
34135;DHT22;20410;55.578;12.968;2023-03-03T03:28:15;1.80;1.00
34135;DHT22;20410;55.578;12.968;2023-03-03T03:30:42;1.70;1.00
34135;DHT22;20410;55.578;12.968;2023-03-03T03:33:10;1.70;1.00
34135;DHT22;20410;55.578;12.968;2023-03-03T03:35:36;1.60;1.00
34135;DHT22;20410;55.578;12.968;2023-03-03T03:38:02;1.60;1.00
34135;DHT22;20410;55.578;12.968;2023-03-03T03:40:27;1.60;1.00
34135;DHT22;20410;55.578;12.968;2023-03-03T03:42:53;1.50;1.00
34135;DHT22;20410;55.578;12.968;2023-03-03T03:45:19;1.50;1.00
34135;DHT22;20410;55.578;12.968;2023-03-03T03:47:45;1.40;1.00
34135;DHT22;20410;55.578;12.968;2023-03-03T03:50:11;1.50;1.00
34135;DHT22;20410;55.578;12.968;2023-03-03T03:52:37;1.50;1.00
34135;DHT22;20410;55.578;12.968;2023-03-03T03:55:03;1.40;1.00
34135;DHT22;20410;55.578;12.968;2023-03-03T03:57:29;1.40;1.00
34135;DHT22;20410;55.578;12.968;2023-03-03T03:59:54;1.30;1.00
34135;DHT22;20410;55.578;12.968;2023-03-03T04:02:20;1.30;1.00
34135;DHT22;20410;55.578;12.968;2023-03-03T04:04:45;1.20;1.00
34135;DHT22;20410;55.578;12.968;2023-03-03T04:07:11;1.10;1.00
34135;DHT22;20410;55.578;12.968;2023-03-03T04:09:37;1.10;1.00
34135;DHT22;20410;55.578;12.968;2023-03-03T04:12:03;1.00;1.00
34135;DHT22;20410;55.578;12.968;2023-03-03T04:14:28;0.90;1.00
34135;DHT22;20410;55.578;12.968;2023-03-03T04:16:54;0.90;1.00
34135;DHT22;20410;55.578;12.968;2023-03-03T04:19:20;1.00;1.00
34135;DHT22;20410;55.578;12.968;2023-03-03T04:21:45;1.00;1.00
34135;DHT22;20410;55.578;12.968;2023-03-03T04:24:11;0.90;1.00
34135;DHT22;20410;55.578;12.968;2023-03-03T04:26:37;0.90;1.00
34135;DHT22;20410;55.578;12.968;2023-03-03T04:29:02;1.00;1.00
34135;DHT22;20410;55.578;12.968;2023-03-03T04:31:28;1.00;1.00
34135;DHT22;20410;55.578;12.968;2023-03-03T04:33:53;1.00;1.00
34135;DHT22;20410;55.578;12.968;2023-03-03T04:36:20;1.00;1.00
34135;DHT22;20410;55.578;12.968;2023-03-03T04:38:46;1.00;1.00
34135;DHT22;20410;55.578;12.968;2023-03-03T04:41:11;1.10;1.00
34135;DHT22;20410;55.578;12.968;2023-03-03T04:43:37;1.20;1.00
34135;DHT22;20410;55.578;12.968;2023-03-03T04:46:03;1.30;1.00
34135;DHT22;20410;55.578;12.968;2023-03-03T04:48:28;1.30;1.00
34135;DHT22;20410;55.578;12.968;2023-03-03T04:50:54;1.30;1.00
34135;DHT22;20410;55.578;12.968;2023-03-03T04:53:20;1.30;1.00
34135;DHT22;20410;55.578;12.968;2023-03-03T04:55:45;1.30;1.00
34135;DHT22;20410;55.578;12.968;2023-03-03T04:58:11;1.40;1.00
34135;DHT22;20410;55.578;12.968;2023-03-03T05:00:37;1.50;1.00
34135;DHT22;20410;55.578;12.968;2023-03-03T05:03:02;1.60;1.00
34135;DHT22;20410;55.578;12.968;2023-03-03T05:05:28;1.70;1.00
34135;DHT22;20410;55.578;12.968;2023-03-03T05:07:54;1.70;1.00
34135;DHT22;20410;55.578;12.968;2023-03-03T05:10:19;1.90;1.00
34135;DHT22;20410;55.578;12.968;2023-03-03T05:12:46;2.00;1.00
34135;DHT22;20410;55.578;12.968;2023-03-03T05:15:12;2.00;1.00
34135;DHT22;20410;55.578;12.968;2023-03-03T05:17:37;2.00;1.00
34135;DHT22;20410;55.578;12.968;2023-03-03T05:20:04;2.00;1.00
34135;DHT22;20410;55.578;12.968;2023-03-03T05:22:30;2.00;1.00
34135;DHT22;20410;55.578;12.968;2023-03-03T05:24:55;2.00;1.00
34135;DHT22;20410;55.578;12.968;2023-03-03T05:27:22;2.10;1.00
34135;DHT22;20410;55.578;12.968;2023-03-03T05:29:47;2.20;1.00
34135;DHT22;20410;55.578;12.968;2023-03-03T05:32:13;2.20;1.00
34135;DHT22;20410;55.578;12.968;2023-03-03T05:34:39;2.30;1.00
34135;DHT22;20410;55.578;12.968;2023-03-03T05:37:05;2.30;1.00
34135;DHT22;20410;55.578;12.968;2023-03-03T05:39:33;2.30;1.00
34135;DHT22;20410;55.578;12.968;2023-03-03T05:41:58;2.30;1.00
34135;DHT22;20410;55.578;12.968;2023-03-03T05:44:25;2.10;1.00
34135;DHT22;20410;55.578;12.968;2023-03-03T05:46:51;2.00;1.00
34135;DHT22;20410;55.578;12.968;2023-03-03T05:49:16;2.00;1.00
34135;DHT22;20410;55.578;12.968;2023-03-03T05:51:42;1.90;1.00
34135;DHT22;20410;55.578;12.968;2023-03-03T05:54:08;1.80;1.00
34135;DHT22;20410;55.578;12.968;2023-03-03T05:56:33;1.80;1.00
34135;DHT22;20410;55.578;12.968;2023-03-03T05:58:59;1.80;1.00
34135;DHT22;20410;55.578;12.968;2023-03-03T06:01:25;1.80;1.00
34135;DHT22;20410;55.578;12.968;2023-03-03T06:03:52;1.70;1.00
34135;DHT22;20410;55.578;12.968;2023-03-03T06:06:17;1.70;1.00
34135;DHT22;20410;55.578;12.968;2023-03-03T06:08:44;1.70;1.00
34135;DHT22;20410;55.578;12.968;2023-03-03T06:11:10;1.80;1.00
34135;DHT22;20410;55.578;12.968;2023-03-03T06:13:36;1.90;1.00
34135;DHT22;20410;55.578;12.968;2023-03-03T06:16:02;1.90;1.00
34135;DHT22;20410;55.578;12.968;2023-03-03T06:18:27;1.90;1.00
34135;DHT22;20410;55.578;12.968;2023-03-03T06:20:53;1.90;1.00
34135;DHT22;20410;55.578;12.968;2023-03-03T06:23:20;1.80;1.00
34135;DHT22;20410;55.578;12.968;2023-03-03T06:25:45;1.80;1.00
34135;DHT22;20410;55.578;12.968;2023-03-03T06:28:12;1.70;1.00
34135;DHT22;20410;55.578;12.968;2023-03-03T06:30:38;1.70;1.00
34135;DHT22;20410;55.578;12.968;2023-03-03T06:33:04;1.60;1.00
34135;DHT22;20410;55.578;12.968;2023-03-03T06:35:29;1.70;1.00
34135;DHT22;20410;55.578;12.968;2023-03-03T06:37:55;1.60;1.00
34135;DHT22;20410;55.578;12.968;2023-03-03T06:40:20;1.70;1.00
34135;DHT22;20410;55.578;12.968;2023-03-03T06:42:46;1.70;1.00
34135;DHT22;20410;55.578;12.968;2023-03-03T06:45:12;1.70;1.00
34135;DHT22;20410;55.578;12.968;2023-03-03T06:47:38;1.80;1.00
34135;DHT22;20410;55.578;12.968;2023-03-03T06:50:05;1.90;1.00
34135;DHT22;20410;55.578;12.968;2023-03-03T06:52:31;2.00;1.00
34135;DHT22;20410;55.578;12.968;2023-03-03T06:54:58;2.10;1.00
34135;DHT22;20410;55.578;12.968;2023-03-03T06:57:28;2.20;1.00
34135;DHT22;20410;55.578;12.968;2023-03-03T06:59:57;2.20;1.00
34135;DHT22;20410;55.578;12.968;2023-03-03T07:02:24;2.10;1.00
34135;DHT22;20410;55.578;12.968;2023-03-03T07:04:50;2.10;1.00
34135;DHT22;20410;55.578;12.968;2023-03-03T07:07:19;2.10;1.00
34135;DHT22;20410;55.578;12.968;2023-03-03T07:09:49;2.30;1.00
34135;DHT22;20410;55.578;12.968;2023-03-03T07:12:22;2.40;1.00
34135;DHT22;20410;55.578;12.968;2023-03-03T07:14:51;2.60;1.00
34135;DHT22;20410;55.578;12.968;2023-03-03T07:17:22;2.80;1.00
34135;DHT22;20410;55.578;12.968;2023-03-03T07:19:48;2.90;2.40
34135;DHT22;20410;55.578;12.968;2023-03-03T07:22:19;3.00;12.60
34135;DHT22;20410;55.578;12.968;2023-03-03T07:24:49;3.10;22.60
34135;DHT22;20410;55.578;12.968;2023-03-03T07:27:30;3.20;24.80
34135;DHT22;20410;55.578;12.968;2023-03-03T07:32:44;3.20;37.20
34135;DHT22;20410;55.578;12.968;2023-03-03T07:37:58;3.20;51.50
34135;DHT22;20410;55.578;12.968;2023-03-03T07:40:34;3.30;56.80
34135;DHT22;20410;55.578;12.968;2023-03-03T07:43:42;3.40;56.20
34135;DHT22;20410;55.578;12.968;2023-03-03T07:46:19;3.40;54.40
34135;DHT22;20410;55.578;12.968;2023-03-03T07:48:47;3.50;57.00
34135;DHT22;20410;55.578;12.968;2023-03-03T07:51:36;3.40;51.50
34135;DHT22;20410;55.578;12.968;2023-03-03T07:54:52;3.50;63.70
34135;DHT22;20410;55.578;12.968;2023-03-03T07:57:10;3.60;69.10
34135;DHT22;20410;55.578;12.968;2023-03-03T07:59:44;3.50;63.00
34135;DHT22;20410;55.578;12.968;2023-03-03T08:02:38;3.50;70.40
34135;DHT22;20410;55.578;12.968;2023-03-03T08:08:35;3.60;86.30
34135;DHT22;20410;55.578;12.968;2023-03-03T08:10:48;3.60;92.20
34135;DHT22;20410;55.578;12.968;2023-03-03T08:13:19;3.60;84.20
34135;DHT22;20410;55.578;12.968;2023-03-03T08:15:48;3.60;78.50
34135;DHT22;20410;55.578;12.968;2023-03-03T08:18:21;3.40;78.00
34135;DHT22;20410;55.578;12.968;2023-03-03T08:21:08;3.40;87.00
34135;DHT22;20410;55.578;12.968;2023-03-03T08:23:34;3.40;88.20
34135;DHT22;20410;55.578;12.968;2023-03-03T08:26:00;3.30;90.20
34135;DHT22;20410;55.578;12.968;2023-03-03T08:28:25;3.30;92.80
34135;DHT22;20410;55.578;12.968;2023-03-03T08:30:51;3.40;96.90
34135;DHT22;20410;55.578;12.968;2023-03-03T08:33:17;3.40;97.30
34135;DHT22;20410;55.578;12.968;2023-03-03T08:35:43;3.30;86.30
34135;DHT22;20410;55.578;12.968;2023-03-03T08:38:11;3.30;89.20
34135;DHT22;20410;55.578;12.968;2023-03-03T08:40:37;3.20;92.40
34135;DHT22;20410;55.578;12.968;2023-03-03T08:43:02;3.20;95.90
34135;DHT22;20410;55.578;12.968;2023-03-03T08:45:28;3.20;98.50
34135;DHT22;20410;55.578;12.968;2023-03-03T08:47:55;3.20;97.30
34135;DHT22;20410;55.578;12.968;2023-03-03T08:50:21;3.30;99.90
34135;DHT22;20410;55.578;12.968;2023-03-03T08:52:47;3.30;99.40
34135;DHT22;20410;55.578;12.968;2023-03-03T08:55:12;3.30;98.50
34135;DHT22;20410;55.578;12.968;2023-03-03T08:57:38;3.30;98.60
34135;DHT22;20410;55.578;12.968;2023-03-03T09:00:07;3.30;98.30
34135;DHT22;20410;55.578;12.968;2023-03-03T09:02:33;3.40;99.90
34135;DHT22;20410;55.578;12.968;2023-03-03T09:04:59;3.50;98.90
34135;DHT22;20410;55.578;12.968;2023-03-03T09:07:24;3.50;99.90
34135;DHT22;20410;55.578;12.968;2023-03-03T09:09:50;3.60;97.50
34135;DHT22;20410;55.578;12.968;2023-03-03T09:12:24;3.60;89.30
34135;DHT22;20410;55.578;12.968;2023-03-03T09:14:51;3.60;88.20
34135;DHT22;20410;55.578;12.968;2023-03-03T09:17:37;3.60;90.50
34135;DHT22;20410;55.578;12.968;2023-03-03T09:22:49;3.60;81.80
34135;DHT22;20410;55.578;12.968;2023-03-03T09:25:33;3.50;61.00
34135;DHT22;20410;55.578;12.968;2023-03-03T09:28:01;3.60;80.90
34135;DHT22;20410;55.578;12.968;2023-03-03T09:30:46;3.60;67.70
34135;DHT22;20410;55.578;12.968;2023-03-03T09:33:46;3.50;64.80
34135;DHT22;20410;55.578;12.968;2023-03-03T09:36:35;3.60;87.30
34135;DHT22;20410;55.578;12.968;2023-03-03T09:39:15;3.70;82.40
34135;DHT22;20410;55.578;12.968;2023-03-03T09:47:20;3.60;78.20
34135;DHT22;20410;55.578;12.968;2023-03-03T10:17:50;4.00;36.50
34135;DHT22;20410;55.578;12.968;2023-03-03T10:25:42;4.30;20.20
34135;DHT22;20410;55.578;12.968;2023-03-03T10:40:34;4.60;1.00
34135;DHT22;20410;55.578;12.968;2023-03-03T10:54:17;5.00;1.00
34135;DHT22;20410;55.578;12.968;2023-03-03T11:07:25;5.20;1.00
34135;DHT22;20410;55.578;12.968;2023-03-03T11:12:44;5.20;1.00
34135;DHT22;20410;55.578;12.968;2023-03-03T11:15:26;5.20;1.00
34135;DHT22;20410;55.578;12.968;2023-03-03T11:17:57;5.20;1.00
34135;DHT22;20410;55.578;12.968;2023-03-03T11:20:35;5.10;1.00
34135;DHT22;20410;55.578;12.968;2023-03-03T11:26:16;5.10;1.00
34135;DHT22;20410;55.578;12.968;2023-03-03T11:31:48;5.10;1.00
34135;DHT22;20410;55.578;12.968;2023-03-03T11:37:06;5.20;1.00
34135;DHT22;20410;55.578;12.968;2023-03-03T11:39:33;5.10;1.00
34135;DHT22;20410;55.578;12.968;2023-03-03T11:45:01;5.00;1.00
34135;DHT22;20410;55.578;12.968;2023-03-03T11:47:38;5.20;1.00
34135;DHT22;20410;55.578;12.968;2023-03-03T11:50:26;5.30;1.00
34135;DHT22;20410;55.578;12.968;2023-03-03T11:55:55;5.30;1.00
34135;DHT22;20410;55.578;12.968;2023-03-03T11:58:26;5.20;1.00
34135;DHT22;20410;55.578;12.968;2023-03-03T12:01:22;5.30;1.00
34135;DHT22;20410;55.578;12.968;2023-03-03T12:04:06;5.30;1.00
34135;DHT22;20410;55.578;12.968;2023-03-03T12:09:54;5.30;1.00
34135;DHT22;20410;55.578;12.968;2023-03-03T12:12:23;5.40;1.00
34135;DHT22;20410;55.578;12.968;2023-03-03T12:20:39;5.20;1.00
34135;DHT22;20410;55.578;12.968;2023-03-03T12:25:46;5.20;1.00
34135;DHT22;20410;55.578;12.968;2023-03-03T12:28:51;5.30;1.00
34135;DHT22;20410;55.578;12.968;2023-03-03T12:34:16;5.20;1.00
34135;DHT22;20410;55.578;12.968;2023-03-03T12:36:50;5.30;1.00
34135;DHT22;20410;55.578;12.968;2023-03-03T12:39:51;5.40;1.00
34135;DHT22;20410;55.578;12.968;2023-03-03T12:45:27;5.40;1.00
34135;DHT22;20410;55.578;12.968;2023-03-03T12:53:09;5.30;1.00
34135;DHT22;20410;55.578;12.968;2023-03-03T12:55:42;5.30;1.00
34135;DHT22;20410;55.578;12.968;2023-03-03T13:01:08;5.40;1.00
34135;DHT22;20410;55.578;12.968;2023-03-03T13:07:13;5.60;1.00
34135;DHT22;20410;55.578;12.968;2023-03-03T13:09:50;5.50;1.00
34135;DHT22;20410;55.578;12.968;2023-03-03T13:15:26;5.80;1.00
34135;DHT22;20410;55.578;12.968;2023-03-03T13:20:58;6.00;1.00
34135;DHT22;20410;55.578;12.968;2023-03-03T13:26:16;5.90;1.00
34135;DHT22;20410;55.578;12.968;2023-03-03T13:29:08;5.90;1.00
34135;DHT22;20410;55.578;12.968;2023-03-03T13:31:46;5.90;1.00
34135;DHT22;20410;55.578;12.968;2023-03-03T13:37:01;6.40;1.00
34135;DHT22;20410;55.578;12.968;2023-03-03T13:42:29;6.60;1.00
34135;DHT22;20410;55.578;12.968;2023-03-03T13:44:58;6.60;1.00
34135;DHT22;20410;55.578;12.968;2023-03-03T13:47:38;6.60;1.00
34135;DHT22;20410;55.578;12.968;2023-03-03T13:55:45;6.60;1.00
34135;DHT22;20410;55.578;12.968;2023-03-03T14:06:29;6.80;1.00
34135;DHT22;20410;55.578;12.968;2023-03-03T14:20:19;6.80;1.00
34135;DHT22;20410;55.578;12.968;2023-03-03T14:23:01;6.80;1.00
34135;DHT22;20410;55.578;12.968;2023-03-03T14:28:27;6.90;1.00
34135;DHT22;20410;55.578;12.968;2023-03-03T14:30:55;6.90;1.00
34135;DHT22;20410;55.578;12.968;2023-03-03T14:33:26;7.00;1.00
34135;DHT22;20410;55.578;12.968;2023-03-03T14:38:43;7.00;1.00
34135;DHT22;20410;55.578;12.968;2023-03-03T14:41:20;7.10;1.00
34135;DHT22;20410;55.578;12.968;2023-03-03T14:46:36;7.30;1.00
34135;DHT22;20410;55.578;12.968;2023-03-03T14:49:32;7.40;1.00
34135;DHT22;20410;55.578;12.968;2023-03-03T14:52:22;7.40;1.00
34135;DHT22;20410;55.578;12.968;2023-03-03T14:54:54;7.40;1.00
34135;DHT22;20410;55.578;12.968;2023-03-03T14:57:35;7.40;1.00
34135;DHT22;20410;55.578;12.968;2023-03-03T15:05:24;7.40;1.00
34135;DHT22;20410;55.578;12.968;2023-03-03T15:07:53;7.50;1.00
34135;DHT22;20410;55.578;12.968;2023-03-03T15:10:31;7.50;1.00
34135;DHT22;20410;55.578;12.968;2023-03-03T15:12:57;7.50;1.00
34135;DHT22;20410;55.578;12.968;2023-03-03T15:15:24;7.40;1.00
34135;DHT22;20410;55.578;12.968;2023-03-03T15:26:23;7.30;1.00
34135;DHT22;20410;55.578;12.968;2023-03-03T15:34:45;7.20;1.00
34135;DHT22;20410;55.578;12.968;2023-03-03T15:37:37;7.20;1.00
34135;DHT22;20410;55.578;12.968;2023-03-03T15:40:27;7.20;1.00
34135;DHT22;20410;55.578;12.968;2023-03-03T15:43:25;7.20;1.00
34135;DHT22;20410;55.578;12.968;2023-03-03T15:48:52;7.20;1.00
34135;DHT22;20410;55.578;12.968;2023-03-03T16:00:16;7.00;1.00
34135;DHT22;20410;55.578;12.968;2023-03-03T16:05:52;6.90;1.00
34135;DHT22;20410;55.578;12.968;2023-03-03T16:11:33;6.80;1.00
34135;DHT22;20410;55.578;12.968;2023-03-03T16:16:53;6.60;1.00
34135;DHT22;20410;55.578;12.968;2023-03-03T16:28:04;6.40;1.00
34135;DHT22;20410;55.578;12.968;2023-03-03T16:30:34;6.30;1.00
34135;DHT22;20410;55.578;12.968;2023-03-03T16:33:16;6.20;1.00
34135;DHT22;20410;55.578;12.968;2023-03-03T16:38:30;6.20;1.00
34135;DHT22;20410;55.578;12.968;2023-03-03T16:40:59;6.10;1.00
34135;DHT22;20410;55.578;12.968;2023-03-03T16:46:24;6.10;1.00
34135;DHT22;20410;55.578;12.968;2023-03-03T16:48:57;6.10;1.00
34135;DHT22;20410;55.578;12.968;2023-03-03T16:57:07;6.00;1.00
34135;DHT22;20410;55.578;12.968;2023-03-03T17:05:36;6.00;1.00
34135;DHT22;20410;55.578;12.968;2023-03-03T17:11:18;6.00;1.00
34135;DHT22;20410;55.578;12.968;2023-03-03T17:14:13;5.90;1.00
34135;DHT22;20410;55.578;12.968;2023-03-03T17:25:57;5.80;1.00
34135;DHT22;20410;55.578;12.968;2023-03-03T17:28:39;5.80;1.00
34135;DHT22;20410;55.578;12.968;2023-03-03T17:50:53;5.70;1.00
34135;DHT22;20410;55.578;12.968;2023-03-03T17:53:46;5.60;1.00
34135;DHT22;20410;55.578;12.968;2023-03-03T18:02:15;5.60;1.00
34135;DHT22;20410;55.578;12.968;2023-03-03T18:08:51;5.60;1.00
34135;DHT22;20410;55.578;12.968;2023-03-03T18:22:53;5.50;1.00
34135;DHT22;20410;55.578;12.968;2023-03-03T18:25:23;5.50;1.00
34135;DHT22;20410;55.578;12.968;2023-03-03T18:30:50;5.40;1.00
34135;DHT22;20410;55.578;12.968;2023-03-03T18:33:15;5.40;1.00
34135;DHT22;20410;55.578;12.968;2023-03-03T18:35:44;5.40;1.00
34135;DHT22;20410;55.578;12.968;2023-03-03T18:40:59;5.40;1.00
34135;DHT22;20410;55.578;12.968;2023-03-03T18:49:07;5.30;1.00
34135;DHT22;20410;55.578;12.968;2023-03-03T18:54:26;5.30;1.00
34135;DHT22;20410;55.578;12.968;2023-03-03T19:04:48;5.30;1.00
34135;DHT22;20410;55.578;12.968;2023-03-03T19:07:25;5.40;1.00
34135;DHT22;20410;55.578;12.968;2023-03-03T19:09:56;5.40;1.00
34135;DHT22;20410;55.578;12.968;2023-03-03T19:18:18;5.50;1.00
34135;DHT22;20410;55.578;12.968;2023-03-03T19:21:18;5.40;1.00
34135;DHT22;20410;55.578;12.968;2023-03-03T19:23:53;5.50;1.00
34135;DHT22;20410;55.578;12.968;2023-03-03T19:32:02;5.50;1.00
34135;DHT22;20410;55.578;12.968;2023-03-03T19:34:38;5.60;1.00
34135;DHT22;20410;55.578;12.968;2023-03-03T19:40:52;5.70;1.00
34135;DHT22;20410;55.578;12.968;2023-03-03T19:49:11;5.80;1.00
34135;DHT22;20410;55.578;12.968;2023-03-03T19:57:02;5.80;1.00
34135;DHT22;20410;55.578;12.968;2023-03-03T20:13:03;5.70;1.00
34135;DHT22;20410;55.578;12.968;2023-03-03T20:15:55;5.70;1.00
34135;DHT22;20410;55.578;12.968;2023-03-03T20:18:49;5.70;1.00
34135;DHT22;20410;55.578;12.968;2023-03-03T20:27:43;5.70;1.00
34135;DHT22;20410;55.578;12.968;2023-03-03T20:30:15;5.70;1.00
34135;DHT22;20410;55.578;12.968;2023-03-03T20:43:47;5.50;1.00
34135;DHT22;20410;55.578;12.968;2023-03-03T20:46:25;5.50;1.00
34135;DHT22;20410;55.578;12.968;2023-03-03T20:49:09;5.50;1.00
34135;DHT22;20410;55.578;12.968;2023-03-03T20:51:57;5.50;1.00
34135;DHT22;20410;55.578;12.968;2023-03-03T21:02:46;5.40;1.00
34135;DHT22;20410;55.578;12.968;2023-03-03T21:05:22;5.40;1.00
34135;DHT22;20410;55.578;12.968;2023-03-03T21:10:24;5.30;1.00
34135;DHT22;20410;55.578;12.968;2023-03-03T21:12:54;5.30;1.00
34135;DHT22;20410;55.578;12.968;2023-03-03T21:15:31;5.30;1.00
34135;DHT22;20410;55.578;12.968;2023-03-03T21:17:59;5.30;1.00
34135;DHT22;20410;55.578;12.968;2023-03-03T21:20:31;5.30;1.00
34135;DHT22;20410;55.578;12.968;2023-03-03T21:22:58;5.20;1.00
34135;DHT22;20410;55.578;12.968;2023-03-03T21:28:35;5.20;1.00
34135;DHT22;20410;55.578;12.968;2023-03-03T21:31:04;5.20;1.00
34135;DHT22;20410;55.578;12.968;2023-03-03T21:33:46;5.20;1.00
34135;DHT22;20410;55.578;12.968;2023-03-03T21:38:43;5.10;1.00
34135;DHT22;20410;55.578;12.968;2023-03-03T21:41:10;5.10;1.00
34135;DHT22;20410;55.578;12.968;2023-03-03T21:43:38;5.10;1.00
34135;DHT22;20410;55.578;12.968;2023-03-03T21:46:04;5.10;1.00
34135;DHT22;20410;55.578;12.968;2023-03-03T21:48:30;5.10;1.00
34135;DHT22;20410;55.578;12.968;2023-03-03T21:50:55;5.10;1.00
34135;DHT22;20410;55.578;12.968;2023-03-03T21:53:21;5.10;1.00
34135;DHT22;20410;55.578;12.968;2023-03-03T21:55:48;5.10;1.00
34135;DHT22;20410;55.578;12.968;2023-03-03T21:58:17;5.10;1.00
34135;DHT22;20410;55.578;12.968;2023-03-03T22:00:43;5.10;1.00
34135;DHT22;20410;55.578;12.968;2023-03-03T22:03:10;5.10;1.00
34135;DHT22;20410;55.578;12.968;2023-03-03T22:05:35;5.10;1.00
34135;DHT22;20410;55.578;12.968;2023-03-03T22:08:01;5.10;1.00
34135;DHT22;20410;55.578;12.968;2023-03-03T22:10:27;5.10;1.00
34135;DHT22;20410;55.578;12.968;2023-03-03T22:12:52;5.10;1.00
34135;DHT22;20410;55.578;12.968;2023-03-03T22:15:18;5.10;1.00
34135;DHT22;20410;55.578;12.968;2023-03-03T22:17:43;5.10;1.00
34135;DHT22;20410;55.578;12.968;2023-03-03T22:20:10;5.10;1.00
34135;DHT22;20410;55.578;12.968;2023-03-03T22:22:36;5.10;1.00
34135;DHT22;20410;55.578;12.968;2023-03-03T22:25:02;5.10;1.00
34135;DHT22;20410;55.578;12.968;2023-03-03T22:27:28;5.10;1.00
34135;DHT22;20410;55.578;12.968;2023-03-03T22:29:53;5.10;1.00
34135;DHT22;20410;55.578;12.968;2023-03-03T22:32:19;5.10;1.00
34135;DHT22;20410;55.578;12.968;2023-03-03T22:34:44;5.10;1.00
34135;DHT22;20410;55.578;12.968;2023-03-03T22:37:10;5.10;1.00
34135;DHT22;20410;55.578;12.968;2023-03-03T22:39:36;5.00;1.00
34135;DHT22;20410;55.578;12.968;2023-03-03T22:42:01;5.00;1.00
34135;DHT22;20410;55.578;12.968;2023-03-03T22:44:27;5.00;1.00
34135;DHT22;20410;55.578;12.968;2023-03-03T22:46:52;5.00;1.00